National Weather Service Raw Text Product

Displaying AFOS PIL: TAFFOD Received: 2017-12-07 17:21 UTC


273 
FTUS43 KDMX 071721
TAFFOD
TAF
KFOD 071721Z 0718/0818 30012KT P6SM FEW250
     FM080700 24007KT P6SM BKN090
     FM081100 29005KT P6SM BKN025=